Time;durP1;ratioP1;P1;durP2;ratioP2;P2;SDS_P1;SDS_P2;PMS_P1;PMS_P2;Temp;Humidity;BMP_temperature;BMP_pressure;BME280_temperature;BME280_humidity;BME280_pressure;Samples;Min_cycle;Max_cycle;Signal;HPM_P1;HPM_P2
2022/02/06 00:00:59;;;;;;;;;;;3.10;79.00;;;;;;5030938;28;84439;-43
2022/02/06 00:03:25;;;;;;;;;;;3.10;79.00;;;;;;5027681;28;83783;-44
2022/02/06 00:05:51;;;;;;;;;;;3.10;79.00;;;;;;5028024;28;84804;-43
2022/02/06 00:08:17;;;;;;;;;;;3.10;79.10;;;;;;5028583;28;82165;-43
2022/02/06 00:10:42;;;;;;;;;;;3.00;79.10;;;;;;5028378;28;83897;-44
2022/02/06 00:13:08;;;;;;;;;;;3.00;79.00;;;;;;5028011;28;85060;-43
2022/02/06 00:15:34;;;;;;;;;;;3.10;79.10;;;;;;5028067;28;82134;-43
2022/02/06 00:17:59;;;;;;;;;;;3.10;79.10;;;;;;5027987;28;84251;-43
2022/02/06 00:20:31;;;;;;;;;;;3.10;79.10;;;;;;5028263;28;83932;-43
2022/02/06 00:23:00;;;;;;;;;;;3.10;79.00;;;;;;5030796;28;81858;-44
2022/02/06 00:28:07;;;;;;;;;;;3.10;79.00;;;;;;5027441;28;82948;-43
2022/02/06 00:30:42;;;;;;;;;;;3.10;79.10;;;;;;5027891;28;83897;-43
2022/02/06 00:33:19;;;;;;;;;;;3.00;79.00;;;;;;5027831;28;83419;-44
2022/02/06 00:38:24;;;;;;;;;;;3.00;79.00;;;;;;5028105;28;82300;-43
2022/02/06 00:43:25;;;;;;;;;;;3.00;79.60;;;;;;5025848;28;81802;-43
2022/02/06 00:45:51;;;;;;;;;;;3.00;79.70;;;;;;5029756;28;84112;-43
2022/02/06 00:48:24;;;;;;;;;;;3.00;79.80;;;;;;5027515;28;81987;-43
2022/02/06 00:50:59;;;;;;;;;;;3.00;79.60;;;;;;5027622;28;82969;-44
2022/02/06 00:53:25;;;;;;;;;;;3.00;79.70;;;;;;5026410;28;85571;-43
2022/02/06 00:55:50;;;;;;;;;;;3.00;79.60;;;;;;5027525;28;82219;-43
2022/02/06 00:58:16;;;;;;;;;;;3.00;79.80;;;;;;5027647;28;82401;-44
2022/02/06 01:00:41;;;;;;;;;;;3.00;79.70;;;;;;5027266;28;83734;-43
2022/02/06 01:03:07;;;;;;;;;;;3.00;80.40;;;;;;5027316;28;82139;-44
2022/02/06 01:05:32;;;;;;;;;;;3.00;79.80;;;;;;5027220;28;83822;-43
2022/02/06 01:07:58;;;;;;;;;;;3.00;79.70;;;;;;5029725;28;84962;-43
2022/02/06 01:10:24;;;;;;;;;;;3.00;79.60;;;;;;5027780;28;84103;-43
2022/02/06 01:12:58;;;;;;;;;;;3.00;79.70;;;;;;5027120;28;84321;-44
2022/02/06 01:15:29;;;;;;;;;;;3.00;79.70;;;;;;5027464;28;81956;-43
2022/02/06 01:20:27;;;;;;;;;;;3.00;79.50;;;;;;5027305;28;83114;-43
2022/02/06 01:22:58;;;;;;;;;;;3.00;79.50;;;;;;5027164;28;81984;-44
2022/02/06 01:25:29;;;;;;;;;;;3.00;79.60;;;;;;5027114;28;83814;-44
2022/02/06 01:28:03;;;;;;;;;;;3.00;79.60;;;;;;5026881;28;84459;-43
2022/02/06 01:33:27;;;;;;;;;;;3.00;79.60;;;;;;5026884;28;82177;-44
2022/02/06 01:36:02;;;;;;;;;;;3.00;79.60;;;;;;5027738;28;81213;-43
2022/02/06 01:38:35;;;;;;;;;;;3.00;79.60;;;;;;5027094;28;82967;-43
2022/02/06 01:41:06;;;;;;;;;;;3.00;79.60;;;;;;5026758;28;84374;-43
2022/02/06 01:43:42;;;;;;;;;;;3.00;79.40;;;;;;5025681;28;82842;-43
2022/02/06 02:08:02;;;;;;;;;;;3.00;79.20;;;;;;5025008;28;82405;-43
2022/02/06 02:46:56;;;;;;;;;;;2.90;79.00;;;;;;5023877;28;81978;-44
2022/02/06 02:49:24;;;;;;;;;;;2.90;79.00;;;;;;5026156;28;84084;-43
2022/02/06 02:51:57;;;;;;;;;;;2.90;78.90;;;;;;5025770;28;84828;-43
2022/02/06 02:54:26;;;;;;;;;;;2.90;78.90;;;;;;5026523;28;81084;-43
2022/02/06 02:57:04;;;;;;;;;;;2.90;78.90;;;;;;5026008;28;83195;-44
2022/02/06 02:59:50;;;;;;;;;;;2.90;78.80;;;;;;5025941;28;84594;-44
2022/02/06 03:02:16;;;;;;;;;;;2.90;78.80;;;;;;5028021;28;82865;-43
2022/02/06 03:04:44;;;;;;;;;;;2.90;78.80;;;;;;5025709;28;84551;-43
2022/02/06 03:07:09;;;;;;;;;;;2.90;78.80;;;;;;5025741;28;82001;-44
2022/02/06 03:09:39;;;;;;;;;;;2.90;78.80;;;;;;5029106;28;84045;-43
2022/02/06 03:12:05;;;;;;;;;;;2.90;79.40;;;;;;5028910;28;84504;-43
2022/02/06 03:14:42;;;;;;;;;;;2.90;78.80;;;;;;5029077;28;82166;-44
2022/02/06 03:17:10;;;;;;;;;;;2.90;78.70;;;;;;5029155;28;84051;-44
2022/02/06 03:19:42;;;;;;;;;;;2.90;78.70;;;;;;5029411;28;83826;-43
2022/02/06 03:22:08;;;;;;;;;;;2.90;78.70;;;;;;5029138;28;82014;-44
2022/02/06 03:24:41;;;;;;;;;;;2.90;78.70;;;;;;5031493;28;83927;-43
2022/02/06 03:27:06;;;;;;;;;;;2.90;78.70;;;;;;5028260;28;82786;-43
2022/02/06 03:29:32;;;;;;;;;;;2.90;78.70;;;;;;5029127;28;84844;-43
2022/02/06 03:31:57;;;;;;;;;;;2.90;78.70;;;;;;5028804;28;84466;-44
2022/02/06 03:34:23;;;;;;;;;;;2.90;78.70;;;;;;5028811;28;82000;-43
2022/02/06 03:36:49;;;;;;;;;;;2.90;78.70;;;;;;5028733;28;83719;-44
2022/02/06 03:39:16;;;;;;;;;;;2.90;78.70;;;;;;5028509;28;84591;-43
2022/02/06 03:44:25;;;;;;;;;;;2.90;78.70;;;;;;5028632;28;82407;-44
2022/02/06 03:47:05;;;;;;;;;;;2.90;78.70;;;;;;5031054;28;83526;-44
2022/02/06 03:49:49;;;;;;;;;;;2.90;78.70;;;;;;5028906;28;83855;-44
2022/02/06 03:52:15;;;;;;;;;;;2.80;78.60;;;;;;5027746;28;85365;-43
2022/02/06 03:54:40;;;;;;;;;;;2.80;78.60;;;;;;5028498;28;82003;-43
2022/02/06 03:57:06;;;;;;;;;;;2.90;78.70;;;;;;5028430;28;83583;-44
2022/02/06 03:59:34;;;;;;;;;;;2.80;78.60;;;;;;5027932;28;83700;-43
2022/02/06 04:02:00;;;;;;;;;;;2.80;78.60;;;;;;5028451;28;82118;-43
2022/02/06 04:04:25;;;;;;;;;;;2.80;78.60;;;;;;5028609;28;83959;-43
2022/02/06 04:06:51;;;;;;;;;;;2.80;78.60;;;;;;5028159;28;84846;-44
2022/02/06 04:09:21;;;;;;;;;;;2.80;78.60;;;;;;5031702;28;80953;-44
2022/02/06 04:11:51;;;;;;;;;;;2.80;78.60;;;;;;5028198;28;84748;-43
2022/02/06 04:14:24;;;;;;;;;;;2.80;78.60;;;;;;5028328;28;82122;-43
2022/02/06 04:16:54;;;;;;;;;;;2.80;78.60;;;;;;5027707;28;83077;-44
2022/02/06 04:19:25;;;;;;;;;;;2.70;78.50;;;;;;5027691;28;84322;-44
2022/02/06 04:21:52;;;;;;;;;;;2.80;78.60;;;;;;5028090;28;81910;-43
2022/02/06 04:24:17;;;;;;;;;;;2.80;78.60;;;;;;5028135;28;83665;-43
2022/02/06 04:26:43;;;;;;;;;;;2.80;78.60;;;;;;5027326;28;84594;-44
2022/02/06 04:29:09;;;;;;;;;;;2.80;78.60;;;;;;5030651;28;82120;-43
2022/02/06 04:31:37;;;;;;;;;;;2.80;78.60;;;;;;5027707;28;84502;-43
2022/02/06 04:34:02;;;;;;;;;;;2.80;78.60;;;;;;5028349;28;81436;-44
2022/02/06 04:36:35;;;;;;;;;;;2.80;78.60;;;;;;5027876;28;83167;-43
2022/02/06 05:14:04;;;;;;;;;;;2.70;78.50;;;;;;5027695;28;81819;-43
2022/02/06 05:16:50;;;;;;;;;;;2.70;78.50;;;;;;5029582;28;82560;-43
2022/02/06 05:32:11;;;;;;;;;;;2.60;78.50;;;;;;5026629;28;82205;-44
2022/02/06 05:34:36;;;;;;;;;;;2.60;78.50;;;;;;5026512;28;84004;-44
2022/02/06 05:37:02;;;;;;;;;;;2.60;78.40;;;;;;5026665;28;84644;-44
2022/02/06 05:39:27;;;;;;;;;;;2.70;78.50;;;;;;5029584;28;82038;-43
2022/02/06 05:41:53;;;;;;;;;;;2.60;78.40;;;;;;5026639;28;84456;-44
2022/02/06 05:44:18;;;;;;;;;;;2.60;78.40;;;;;;5026104;28;82035;-44
2022/02/06 05:46:44;;;;;;;;;;;2.60;78.30;;;;;;5026777;28;83642;-43
2022/02/06 05:49:10;;;;;;;;;;;2.60;78.30;;;;;;5026692;28;84499;-43
2022/02/06 05:51:36;;;;;;;;;;;2.60;78.40;;;;;;5027251;28;81330;-44
2022/02/06 05:54:01;;;;;;;;;;;2.60;78.40;;;;;;5026807;28;83287;-44
2022/02/06 05:56:27;;;;;;;;;;;2.60;78.40;;;;;;5026338;28;84747;-43
2022/02/06 05:58:53;;;;;;;;;;;2.60;78.30;;;;;;5026062;28;83005;-43
2022/02/06 06:01:18;;;;;;;;;;;2.60;78.30;;;;;;5029162;28;84997;-43
2022/02/06 06:03:44;;;;;;;;;;;2.60;78.30;;;;;;5026571;28;82068;-43
2022/02/06 06:06:09;;;;;;;;;;;2.60;78.30;;;;;;5026603;28;82490;-43
2022/02/06 06:08:35;;;;;;;;;;;2.60;78.30;;;;;;5026276;28;84898;-43
2022/02/06 06:11:00;;;;;;;;;;;2.60;78.40;;;;;;5026312;28;82230;-43
2022/02/06 06:13:26;;;;;;;;;;;2.60;78.40;;;;;;5026265;28;84111;-43
2022/02/06 06:15:52;;;;;;;;;;;2.60;78.30;;;;;;5026788;28;83567;-43
2022/02/06 06:18:18;;;;;;;;;;;2.60;78.30;;;;;;5026527;28;82136;-43
2022/02/06 06:20:45;;;;;;;;;;;2.50;78.20;;;;;;5029072;28;84166;-43
2022/02/06 06:23:11;;;;;;;;;;;2.60;78.30;;;;;;5025621;28;83006;-43
2022/02/06 06:25:39;;;;;;;;;;;2.60;78.30;;;;;;5026200;28;84718;-43
2022/02/06 06:28:06;;;;;;;;;;;2.60;78.40;;;;;;5025930;28;83273;-44
2022/02/06 06:30:32;;;;;;;;;;;2.50;78.30;;;;;;5026360;28;82066;-44
2022/02/06 06:32:57;;;;;;;;;;;2.60;78.30;;;;;;5025102;28;84569;-44
2022/02/06 06:35:23;;;;;;;;;;;2.60;78.30;;;;;;5026087;28;84456;-42
2022/02/06 06:37:49;;;;;;;;;;;2.50;78.20;;;;;;5026080;28;81970;-43
2022/02/06 06:40:15;;;;;;;;;;;2.50;78.20;;;;;;5026493;28;83915;-43
2022/02/06 06:42:41;;;;;;;;;;;2.50;78.20;;;;;;5028708;28;84470;-44
2022/02/06 06:45:07;;;;;;;;;;;2.50;78.20;;;;;;5029960;28;84233;-44
2022/02/06 06:47:32;;;;;;;;;;;2.50;78.20;;;;;;5028709;28;84097;-43
2022/02/06 06:49:58;;;;;;;;;;;2.50;78.20;;;;;;5029808;28;82232;-42
2022/02/06 06:52:23;;;;;;;;;;;2.50;78.30;;;;;;5029476;28;84134;-43
2022/02/06 06:54:58;;;;;;;;;;;2.50;78.20;;;;;;5029324;28;84457;-44
2022/02/06 06:57:28;;;;;;;;;;;2.50;78.30;;;;;;5029422;28;81976;-43
2022/02/06 07:04:49;;;;;;;;;;;2.50;78.10;;;;;;5032604;28;81367;-43
2022/02/06 07:07:15;;;;;;;;;;;2.50;78.20;;;;;;5028906;28;84036;-43
2022/02/06 07:09:41;;;;;;;;;;;2.50;78.30;;;;;;5028862;28;81819;-44
2022/02/06 07:12:09;;;;;;;;;;;2.50;78.30;;;;;;5028722;28;84049;-43
2022/02/06 07:14:35;;;;;;;;;;;2.50;78.20;;;;;;5028991;28;84263;-44
2022/02/06 07:17:01;;;;;;;;;;;2.50;78.20;;;;;;5029010;28;82115;-43
2022/02/06 07:19:26;;;;;;;;;;;2.50;78.30;;;;;;5028990;28;83898;-43
2022/02/06 07:21:52;;;;;;;;;;;2.50;78.20;;;;;;5028670;28;85083;-44
2022/02/06 07:24:18;;;;;;;;;;;2.50;78.20;;;;;;5028991;28;82093;-44
2022/02/06 07:26:47;;;;;;;;;;;2.50;78.10;;;;;;5031591;28;82727;-43
2022/02/06 07:29:16;;;;;;;;;;;2.50;78.10;;;;;;5029682;28;81658;-43
2022/02/06 07:31:42;;;;;;;;;;;2.50;78.10;;;;;;5028904;28;83136;-44
2022/02/06 07:34:08;;;;;;;;;;;2.50;78.10;;;;;;5028619;28;84422;-43
2022/02/06 07:36:34;;;;;;;;;;;2.50;78.20;;;;;;5028096;28;83023;-43
2022/02/06 07:38:59;;;;;;;;;;;2.50;78.10;;;;;;5028534;28;85169;-43
2022/02/06 07:41:25;;;;;;;;;;;2.50;78.10;;;;;;5028332;28;83322;-43
2022/02/06 07:43:50;;;;;;;;;;;2.50;78.10;;;;;;5028029;28;82115;-43
2022/02/06 07:46:19;;;;;;;;;;;2.50;78.10;;;;;;5028582;28;84070;-43
2022/02/06 07:48:44;;;;;;;;;;;2.50;78.10;;;;;;5031182;28;84825;-43
2022/02/06 07:51:10;;;;;;;;;;;2.50;78.10;;;;;;5028504;28;83447;-43
2022/02/06 07:53:36;;;;;;;;;;;2.50;78.00;;;;;;5028356;28;83426;-43
2022/02/06 07:56:01;;;;;;;;;;;2.50;78.00;;;;;;5028357;28;81940;-44
2022/02/06 07:58:27;;;;;;;;;;;2.50;78.10;;;;;;5028683;28;83407;-44
2022/02/06 08:00:52;;;;;;;;;;;2.50;78.00;;;;;;5027676;28;85670;-43
2022/02/06 08:03:18;;;;;;;;;;;2.50;78.00;;;;;;5028297;28;82114;-43
2022/02/06 08:05:43;;;;;;;;;;;2.50;78.00;;;;;;5028750;28;82378;-43
2022/02/06 08:08:14;;;;;;;;;;;2.50;78.00;;;;;;5027932;28;83573;-43
2022/02/06 08:10:40;;;;;;;;;;;2.50;78.00;;;;;;5031019;28;81792;-44
2022/02/06 08:13:09;;;;;;;;;;;2.50;78.00;;;;;;5028012;28;84441;-43
2022/02/06 08:15:35;;;;;;;;;;;2.50;78.00;;;;;;5028215;28;81893;-45
2022/02/06 08:18:01;;;;;;;;;;;2.50;78.00;;;;;;5028588;28;84229;-43
2022/02/06 08:20:26;;;;;;;;;;;2.50;78.00;;;;;;5028003;28;83209;-43
2022/02/06 08:22:52;;;;;;;;;;;2.50;78.00;;;;;;5027807;28;82112;-43
2022/02/06 08:25:17;;;;;;;;;;;2.50;78.00;;;;;;5027338;28;82869;-43
2022/02/06 08:27:43;;;;;;;;;;;2.50;78.00;;;;;;5027997;28;82966;-44
2022/02/06 08:30:10;;;;;;;;;;;2.50;78.00;;;;;;5030714;28;82078;-43
2022/02/06 08:32:35;;;;;;;;;;;2.50;78.10;;;;;;5027768;28;83671;-44
2022/02/06 08:35:01;;;;;;;;;;;2.50;78.00;;;;;;5027750;28;81778;-43
2022/02/06 08:37:26;;;;;;;;;;;2.50;78.00;;;;;;5028159;28;81794;-44
2022/02/06 08:39:54;;;;;;;;;;;2.50;78.00;;;;;;5027605;28;84872;-44
2022/02/06 08:42:20;;;;;;;;;;;2.50;78.10;;;;;;5028029;28;80986;-43
2022/02/06 08:44:46;;;;;;;;;;;2.50;78.00;;;;;;5026389;28;84676;-44
2022/02/06 08:47:13;;;;;;;;;;;2.50;78.10;;;;;;5027576;28;84390;-44
2022/02/06 08:49:39;;;;;;;;;;;2.50;78.10;;;;;;5026960;28;83030;-44
2022/02/06 08:52:05;;;;;;;;;;;2.50;78.10;;;;;;5030069;28;84003;-43
2022/02/06 08:54:33;;;;;;;;;;;2.50;78.10;;;;;;5027741;28;81734;-44
2022/02/06 08:57:02;;;;;;;;;;;2.50;78.10;;;;;;5027363;28;83887;-43
2022/02/06 08:59:31;;;;;;;;;;;2.50;78.20;;;;;;5027200;28;84546;-43
2022/02/06 09:02:01;;;;;;;;;;;2.50;78.10;;;;;;5027592;28;82061;-43
2022/02/06 09:04:27;;;;;;;;;;;2.50;78.10;;;;;;5027442;28;83797;-44
2022/02/06 09:06:57;;;;;;;;;;;2.50;78.20;;;;;;5026379;28;82888;-44
2022/02/06 09:09:22;;;;;;;;;;;2.50;78.20;;;;;;5027433;28;82077;-43
2022/02/06 09:11:48;;;;;;;;;;;2.50;78.20;;;;;;5027561;28;83778;-43
2022/02/06 09:14:17;;;;;;;;;;;2.50;78.20;;;;;;5029277;28;85783;-44
2022/02/06 09:16:42;;;;;;;;;;;2.50;78.20;;;;;;5027317;28;85009;-44
2022/02/06 09:19:08;;;;;;;;;;;2.50;78.20;;;;;;5025769;28;85951;-43
2022/02/06 09:21:33;;;;;;;;;;;2.50;78.20;;;;;;5026813;28;82218;-43
2022/02/06 09:23:59;;;;;;;;;;;2.50;78.20;;;;;;5027163;28;84119;-44
2022/02/06 09:26:26;;;;;;;;;;;2.50;78.20;;;;;;5026826;28;85142;-44
2022/02/06 09:28:51;;;;;;;;;;;2.50;78.30;;;;;;5027168;28;81890;-44
2022/02/06 09:31:23;;;;;;;;;;;2.50;78.30;;;;;;5027341;28;84039;-43
2022/02/06 09:36:14;;;;;;;;;;;2.60;78.30;;;;;;5029720;28;82085;-43
2022/02/06 09:38:40;;;;;;;;;;;2.50;78.30;;;;;;5025970;28;85487;-44
2022/02/06 09:41:05;;;;;;;;;;;2.60;78.40;;;;;;5026882;28;81957;-43
2022/02/06 09:43:32;;;;;;;;;;;2.50;78.40;;;;;;5026314;28;84217;-45
2022/02/06 09:45:59;;;;;;;;;;;2.60;78.40;;;;;;5026664;28;84625;-43
2022/02/06 09:48:27;;;;;;;;;;;2.50;78.40;;;;;;5026703;28;81870;-44
2022/02/06 09:50:55;;;;;;;;;;;2.60;78.50;;;;;;5027017;28;84060;-43
2022/02/06 09:53:20;;;;;;;;;;;2.60;78.50;;;;;;5026720;28;84934;-44
2022/02/06 09:55:46;;;;;;;;;;;2.60;78.40;;;;;;5027262;28;81321;-44
2022/02/06 09:58:45;;;;;;;;;;;2.60;78.40;;;;;;5029334;28;83123;-43
2022/02/06 10:01:08;;;;;;;;;;;2.60;78.50;;;;;;5026333;28;82032;-44
2022/02/06 10:03:38;;;;;;;;;;;2.60;78.40;;;;;;5025983;28;83880;-44
2022/02/06 10:06:05;;;;;;;;;;;2.60;78.50;;;;;;5026184;28;84730;-44
2022/02/06 10:08:38;;;;;;;;;;;2.60;78.60;;;;;;5026553;28;82065;-44
2022/02/06 10:11:04;;;;;;;;;;;2.60;78.60;;;;;;5026568;28;82277;-44
2022/02/06 10:13:30;;;;;;;;;;;2.60;78.60;;;;;;5026556;28;82974;-43
2022/02/06 10:15:56;;;;;;;;;;;2.60;78.50;;;;;;5026374;28;82133;-44
2022/02/06 10:18:22;;;;;;;;;;;2.70;78.60;;;;;;5030025;28;83823;-44
2022/02/06 10:20:49;;;;;;;;;;;2.70;78.60;;;;;;5032984;28;83474;-44
2022/02/06 10:23:22;;;;;;;;;;;2.70;78.60;;;;;;5029800;28;83246;-44
2022/02/06 10:25:49;;;;;;;;;;;2.70;78.60;;;;;;5029591;28;84811;-43
2022/02/06 10:28:58;;;;;;;;;;;2.70;78.60;;;;;;5029160;28;83034;-44
2022/02/06 10:31:07;;;;;;;;;;;2.70;78.70;;;;;;5027262;28;82528;-43
2022/02/06 10:33:47;;;;;;;;;;;2.70;78.70;;;;;;5029904;28;84260;-44
2022/02/06 10:36:14;;;;;;;;;;;2.70;78.60;;;;;;5029803;28;82058;-43
2022/02/06 10:38:39;;;;;;;;;;;2.70;78.60;;;;;;5029609;28;83911;-44
2022/02/06 10:41:11;;;;;;;;;;;2.70;78.50;;;;;;5032101;28;84752;-44
2022/02/06 10:43:38;;;;;;;;;;;2.70;78.60;;;;;;5029364;28;84128;-44
2022/02/06 10:46:06;;;;;;;;;;;2.70;78.60;;;;;;5030062;28;83671;-44
2022/02/06 10:48:32;;;;;;;;;;;2.70;78.60;;;;;;5029707;28;82111;-43
2022/02/06 10:50:57;;;;;;;;;;;2.70;78.60;;;;;;5029541;28;84366;-44
2022/02/06 10:53:23;;;;;;;;;;;2.80;78.60;;;;;;5028461;28;84341;-43
2022/02/06 10:55:59;;;;;;;;;;;2.80;78.70;;;;;;5029805;28;82108;-44
2022/02/06 10:58:29;;;;;;;;;;;2.80;78.70;;;;;;5029375;28;83735;-44
2022/02/06 11:00:55;;;;;;;;;;;2.80;78.80;;;;;;5029106;28;84788;-44
2022/02/06 11:03:37;;;;;;;;;;;2.80;78.70;;;;;;5030720;28;82155;-43
2022/02/06 11:06:07;;;;;;;;;;;2.80;78.70;;;;;;5028831;28;84218;-44
2022/02/06 11:08:34;;;;;;;;;;;2.80;78.70;;;;;;5029262;28;81924;-43
2022/02/06 11:11:08;;;;;;;;;;;2.90;78.80;;;;;;5029745;28;83838;-44
2022/02/06 11:13:34;;;;;;;;;;;2.90;78.70;;;;;;5029103;28;83063;-44
2022/02/06 11:16:04;;;;;;;;;;;2.80;78.70;;;;;;5029249;28;82103;-43
2022/02/06 11:18:38;;;;;;;;;;;2.90;78.70;;;;;;5028471;28;83805;-43
2022/02/06 11:21:08;;;;;;;;;;;2.90;78.90;;;;;;5028805;28;84605;-45
2022/02/06 11:23:39;;;;;;;;;;;2.90;78.80;;;;;;5029144;28;82064;-45
2022/02/06 11:26:05;;;;;;;;;;;2.90;78.70;;;;;;5031561;28;83755;-45
2022/02/06 11:28:31;;;;;;;;;;;2.90;78.80;;;;;;5028389;28;82083;-44
2022/02/06 11:30:57;;;;;;;;;;;3.00;79.00;;;;;;5029038;28;83900;-45
2022/02/06 11:33:23;;;;;;;;;;;3.00;79.00;;;;;;5025377;28;89870;-43
2022/02/06 11:35:56;;;;;;;;;;;3.00;79.00;;;;;;5026178;28;86632;-44
2022/02/06 11:44:06;;;;;;;;;;;3.00;79.00;;;;;;5024403;28;88053;-44
2022/02/06 11:46:53;;;;;;;;;;;3.00;78.90;;;;;;5025161;28;89948;-43
2022/02/06 11:49:19;;;;;;;;;;;3.00;79.00;;;;;;5027726;28;88526;-45
2022/02/06 11:51:53;;;;;;;;;;;3.10;79.00;;;;;;5025066;28;87920;-45
2022/02/06 11:54:28;;;;;;;;;;;3.10;79.10;;;;;;5024774;28;89051;-44
2022/02/06 11:57:12;;;;;;;;;;;3.10;79.00;;;;;;5025313;28;87133;-44
2022/02/06 11:59:37;;;;;;;;;;;3.10;78.90;;;;;;5025169;28;88827;-45
2022/02/06 12:02:29;;;;;;;;;;;3.10;78.90;;;;;;5025205;28;87468;-45
2022/02/06 12:05:13;;;;;;;;;;;3.20;79.00;;;;;;5022735;27;86995;-45
2022/02/06 12:07:59;;;;;;;;;;;3.20;79.00;;;;;;5024783;28;89994;-45
2022/02/06 12:10:36;;;;;;;;;;;3.20;79.00;;;;;;5016200;27;91117;-45
2022/02/06 12:13:22;;;;;;;;;;;3.20;79.00;;;;;;5027702;28;87126;-44
2022/02/06 12:15:51;;;;;;;;;;;3.20;79.00;;;;;;5024553;28;89281;-43
2022/02/06 12:18:30;;;;;;;;;;;3.30;79.00;;;;;;5024653;28;87094;-43
2022/02/06 12:20:57;;;;;;;;;;;3.30;79.00;;;;;;5024690;28;89434;-46
2022/02/06 12:23:42;;;;;;;;;;;3.30;79.10;;;;;;5024168;28;89297;-45
2022/02/06 12:26:32;;;;;;;;;;;3.30;79.00;;;;;;5024852;28;87234;-44
2022/02/06 12:28:58;;;;;;;;;;;3.30;79.00;;;;;;5025114;28;87349;-43
2022/02/06 12:31:32;;;;;;;;;;;3.30;79.00;;;;;;5024242;28;89396;-43
2022/02/06 12:39:33;;;;;;;;;;;3.40;78.90;;;;;;5023580;28;86889;-43
2022/02/06 12:41:59;;;;;;;;;;;3.40;78.90;;;;;;5024339;28;88858;-44
2022/02/06 12:44:26;;;;;;;;;;;3.40;78.90;;;;;;5023820;28;88442;-46
2022/02/06 12:46:52;;;;;;;;;;;3.50;78.90;;;;;;5024250;28;87130;-45
2022/02/06 12:49:22;;;;;;;;;;;3.50;79.00;;;;;;5024343;28;87846;-47
2022/02/06 12:51:54;;;;;;;;;;;3.50;78.80;;;;;;5023813;28;89802;-44
2022/02/06 12:54:21;;;;;;;;;;;3.50;78.80;;;;;;5024777;28;86093;-44
2022/02/06 12:56:46;;;;;;;;;;;3.50;78.80;;;;;;5026815;28;87043;-45
2022/02/06 12:59:16;;;;;;;;;;;3.60;78.90;;;;;;5024205;28;87203;-45
2022/02/06 13:01:44;;;;;;;;;;;3.50;78.70;;;;;;5023669;28;88825;-45
2022/02/06 13:04:17;;;;;;;;;;;3.60;78.90;;;;;;5023704;28;89355;-43
2022/02/06 13:06:44;;;;;;;;;;;3.60;78.90;;;;;;5024051;28;87169;-46
2022/02/06 13:09:17;;;;;;;;;;;3.60;78.80;;;;;;5024206;28;88817;-45
2022/02/06 13:11:49;;;;;;;;;;;3.60;78.80;;;;;;5023592;28;89883;-44
2022/02/06 13:14:29;;;;;;;;;;;3.60;78.80;;;;;;5024183;28;86960;-43
2022/02/06 13:25:04;;;;;;;;;;;3.70;78.80;;;;;;5021681;28;88009;-45
2022/02/06 13:30:46;;;;;;;;;;;3.70;79.20;;;;;;5023641;28;88289;-44
2022/02/06 13:36:12;;;;;;;;;;;3.80;78.80;;;;;;5023830;28;87155;-45
2022/02/06 13:38:38;;;;;;;;;;;3.80;78.90;;;;;;5023505;28;88480;-46
2022/02/06 13:41:14;;;;;;;;;;;3.80;78.90;;;;;;5023489;28;89348;-46
2022/02/06 13:43:41;;;;;;;;;;;3.90;79.00;;;;;;5025747;28;87116;-44
2022/02/06 13:46:16;;;;;;;;;;;3.90;79.00;;;;;;5023393;28;88727;-44
2022/02/06 13:48:46;;;;;;;;;;;3.90;79.00;;;;;;5023327;28;87081;-45
2022/02/06 13:51:12;;;;;;;;;;;3.90;78.90;;;;;;5022576;28;88977;-44
2022/02/06 13:53:37;;;;;;;;;;;3.90;78.90;;;;;;5022503;28;90529;-44
2022/02/06 13:56:06;;;;;;;;;;;4.00;78.90;;;;;;5023416;28;87122;-44
2022/02/06 13:58:33;;;;;;;;;;;4.00;78.90;;;;;;5023348;28;88931;-44
2022/02/06 14:01:06;;;;;;;;;;;4.00;78.90;;;;;;5022967;28;89125;-44
2022/02/06 14:03:48;;;;;;;;;;;4.00;78.90;;;;;;5023054;28;87251;-44
2022/02/06 14:06:23;;;;;;;;;;;4.00;78.90;;;;;;5025776;28;89084;-44
2022/02/06 14:12:08;;;;;;;;;;;4.00;79.00;;;;;;4999917;28;86696;-45
2022/02/06 14:14:35;;;;;;;;;;;4.10;79.10;;;;;;5022862;28;90903;-45
2022/02/06 14:17:00;;;;;;;;;;;4.10;79.10;;;;;;5023106;28;87105;-46
2022/02/06 14:19:39;;;;;;;;;;;4.10;79.10;;;;;;5022568;28;89008;-46
2022/02/06 14:22:05;;;;;;;;;;;4.10;79.00;;;;;;5021238;28;91348;-47
2022/02/06 14:24:46;;;;;;;;;;;4.20;79.10;;;;;;5022618;28;87035;-45
2022/02/06 14:27:11;;;;;;;;;;;4.20;79.30;;;;;;5022987;28;87908;-45
2022/02/06 14:29:37;;;;;;;;;;;4.20;79.30;;;;;;5025515;28;88376;-42
2022/02/06 14:32:09;;;;;;;;;;;4.20;79.40;;;;;;5023013;28;89476;-46
2022/02/06 14:34:34;;;;;;;;;;;4.20;79.30;;;;;;5022369;28;89254;-45
2022/02/06 14:37:12;;;;;;;;;;;4.30;79.50;;;;;;5023174;28;86358;-44
2022/02/06 14:39:58;;;;;;;;;;;4.30;79.30;;;;;;5022894;28;88322;-46
2022/02/06 14:42:26;;;;;;;;;;;4.30;79.40;;;;;;5022297;28;89511;-45
2022/02/06 14:44:51;;;;;;;;;;;4.30;79.20;;;;;;5022277;28;87928;-46
2022/02/06 14:47:17;;;;;;;;;;;4.40;79.30;;;;;;5022579;28;90050;-49
2022/02/06 14:49:42;;;;;;;;;;;4.40;79.40;;;;;;5022372;28;89707;-44
2022/02/06 14:52:08;;;;;;;;;;;4.40;79.50;;;;;;5025444;28;87010;-44
2022/02/06 14:54:38;;;;;;;;;;;4.40;79.60;;;;;;5022325;28;89445;-45
2022/02/06 14:57:03;;;;;;;;;;;4.40;79.70;;;;;;5022803;28;86892;-47
2022/02/06 14:59:29;;;;;;;;;;;4.40;79.70;;;;;;5022713;28;88515;-45
2022/02/06 15:01:55;;;;;;;;;;;4.50;79.70;;;;;;5022629;28;87851;-44
2022/02/06 15:04:25;;;;;;;;;;;4.50;79.60;;;;;;5023873;28;87094;-44
2022/02/06 15:06:51;;;;;;;;;;;4.50;79.60;;;;;;5025770;28;88964;-47
2022/02/06 15:09:16;;;;;;;;;;;4.50;79.80;;;;;;5024708;28;90305;-45
2022/02/06 15:11:42;;;;;;;;;;;4.60;75.10;;;;;;5028754;28;87154;-44
2022/02/06 15:14:07;;;;;;;;;;;4.60;75.80;;;;;;5025372;28;89848;-42
2022/02/06 15:16:36;;;;;;;;;;;4.70;73.60;;;;;;5025910;28;87020;-43
2022/02/06 15:19:13;;;;;;;;;;;4.80;73.30;;;;;;5025578;28;89124;-42
2022/02/06 15:21:39;;;;;;;;;;;4.80;72.60;;;;;;5025603;28;89710;-41
2022/02/06 15:24:04;;;;;;;;;;;4.80;72.90;;;;;;5025811;28;87038;-45
2022/02/06 15:26:30;;;;;;;;;;;4.80;72.50;;;;;;5026069;28;88914;-48
2022/02/06 15:28:56;;;;;;;;;;;4.80;72.50;;;;;;5025206;28;88348;-44
2022/02/06 15:31:21;;;;;;;;;;;4.90;73.50;;;;;;5025418;28;86857;-42
2022/02/06 15:33:47;;;;;;;;;;;4.80;73.40;;;;;;5027243;28;88274;-45
2022/02/06 15:36:13;;;;;;;;;;;4.80;74.00;;;;;;5025646;28;87081;-43
2022/02/06 15:38:39;;;;;;;;;;;4.80;74.30;;;;;;5025297;28;88824;-43
2022/02/06 15:41:05;;;;;;;;;;;4.80;74.20;;;;;;5025040;28;89775;-43
2022/02/06 15:43:31;;;;;;;;;;;4.80;74.00;;;;;;5024853;28;87046;-43
2022/02/06 15:45:56;;;;;;;;;;;4.90;73.30;;;;;;5025178;28;88823;-42
2022/02/06 15:48:22;;;;;;;;;;;4.90;73.60;;;;;;5024746;28;89345;-42
2022/02/06 15:50:50;;;;;;;;;;;4.90;72.30;;;;;;5025617;28;86405;-42
2022/02/06 15:53:16;;;;;;;;;;;4.90;73.20;;;;;;5025253;28;87581;-43
2022/02/06 15:55:42;;;;;;;;;;;4.90;72.40;;;;;;5027723;28;89222;-42
2022/02/06 15:58:07;;;;;;;;;;;5.00;72.80;;;;;;5024449;28;88973;-43
2022/02/06 16:00:33;;;;;;;;;;;5.00;73.20;;;;;;5024798;28;89323;-42
2022/02/06 16:02:58;;;;;;;;;;;5.10;73.00;;;;;;5023360;28;87124;-42
2022/02/06 16:05:24;;;;;;;;;;;5.00;73.30;;;;;;5025043;28;89196;-43
2022/02/06 16:07:50;;;;;;;;;;;5.10;72.90;;;;;;5024774;28;88232;-45
2022/02/06 16:10:15;;;;;;;;;;;5.10;71.70;;;;;;5024954;28;87079;-42
2022/02/06 16:12:41;;;;;;;;;;;5.10;71.90;;;;;;5024905;28;88791;-42
2022/02/06 16:15:07;;;;;;;;;;;5.20;72.70;;;;;;5024637;28;88575;-44
2022/02/06 16:17:33;;;;;;;;;;;5.10;73.00;;;;;;5027502;28;87053;-43
2022/02/06 16:19:59;;;;;;;;;;;5.10;73.20;;;;;;5024773;28;89357;-43
2022/02/06 16:22:24;;;;;;;;;;;5.10;73.40;;;;;;5024126;28;88156;-43
2022/02/06 16:24:50;;;;;;;;;;;5.10;73.60;;;;;;5024878;28;90314;-43
2022/02/06 16:27:16;;;;;;;;;;;5.10;73.90;;;;;;5024251;28;89879;-43
2022/02/06 16:29:42;;;;;;;;;;;5.10;74.10;;;;;;5024910;28;86769;-43
2022/02/06 16:32:13;;;;;;;;;;;5.10;74.30;;;;;;5024586;28;89263;-44
2022/02/06 16:34:43;;;;;;;;;;;5.10;74.40;;;;;;5024328;28;89729;-44
2022/02/06 16:37:09;;;;;;;;;;;5.00;74.50;;;;;;5024557;28;87134;-44
2022/02/06 16:39:39;;;;;;;;;;;5.00;74.60;;;;;;5027677;28;88844;-44
2022/02/06 16:42:05;;;;;;;;;;;5.00;74.70;;;;;;5024369;28;87055;-43
2022/02/06 16:44:30;;;;;;;;;;;5.00;74.80;;;;;;5023812;28;88765;-43
2022/02/06 16:46:56;;;;;;;;;;;5.00;74.80;;;;;;5023117;28;90613;-44
2022/02/06 16:49:21;;;;;;;;;;;5.00;74.90;;;;;;5024166;28;87125;-44
2022/02/06 16:51:48;;;;;;;;;;;5.10;75.10;;;;;;5024258;28;87992;-43
2022/02/06 16:54:14;;;;;;;;;;;5.00;75.10;;;;;;5023924;28;89243;-44
2022/02/06 16:56:39;;;;;;;;;;;5.00;75.20;;;;;;5024015;28;86882;-44
2022/02/06 16:59:05;;;;;;;;;;;5.10;75.30;;;;;;5026622;28;88952;-43
2022/02/06 17:01:30;;;;;;;;;;;5.00;75.30;;;;;;5024102;28;87224;-45
2022/02/06 17:03:56;;;;;;;;;;;5.00;75.30;;;;;;5024754;28;89569;-46
2022/02/06 17:06:21;;;;;;;;;;;5.00;75.40;;;;;;5023426;28;89615;-44
2022/02/06 17:08:47;;;;;;;;;;;5.10;75.60;;;;;;5024027;28;87202;-45
2022/02/06 17:11:13;;;;;;;;;;;5.10;75.60;;;;;;5023177;28;88997;-44
2022/02/06 17:13:39;;;;;;;;;;;5.00;75.60;;;;;;5023521;28;89629;-44
2022/02/06 17:16:05;;;;;;;;;;;5.10;75.60;;;;;;5023665;28;87084;-43